Time;durP1;ratioP1;P1;durP2;ratioP2;P2;SDS_P1;SDS_P2;PMS_P1;PMS_P2;Temp;Humidity;BMP_temperature;BMP_pressure;BME280_temperature;BME280_humidity;BME280_pressure;Samples;Min_cycle;Max_cycle;Signal;HPM_P1;HPM_P2
2023/07/19 00:00:01;;;;;;;5.17;2.03;;;18.70;1.00;;;;;;4994703;28;20227;-65
2023/07/19 00:02:28;;;;;;;2.67;1.90;;;18.70;1.00;;;;;;4989797;28;20897;-62
2023/07/19 00:04:55;;;;;;;4.43;1.90;;;18.70;1.00;;;;;;4997401;28;20253;-60
2023/07/19 00:07:22;;;;;;;3.20;1.63;;;18.70;1.00;;;;;;5000079;28;20222;-60
2023/07/19 00:09:48;;;;;;;3.00;1.60;;;18.70;1.00;;;;;;5001682;28;20209;-60
2023/07/19 00:12:15;;;;;;;4.80;1.90;;;18.70;1.00;;;;;;4998601;28;20217;-62
2023/07/19 00:14:43;;;;;;;3.40;1.63;;;18.70;1.00;;;;;;4999877;28;20795;-61
2023/07/19 00:17:10;;;;;;;1.97;1.47;;;18.70;1.00;;;;;;4995224;28;20206;-61
2023/07/19 00:19:36;;;;;;;3.17;1.43;;;18.70;1.00;;;;;;4995743;28;20768;-60
2023/07/19 00:22:04;;;;;;;4.53;1.57;;;18.60;1.00;;;;;;4999148;28;20202;-60
2023/07/19 00:24:31;;;;;;;8.93;1.60;;;18.60;1.00;;;;;;4992457;28;20665;-60
2023/07/19 00:26:58;;;;;;;4.17;1.60;;;18.50;1.00;;;;;;4995340;28;20206;-68
2023/07/19 00:29:25;;;;;;;3.60;1.50;;;18.60;1.00;;;;;;4999777;28;20667;-67
2023/07/19 00:31:51;;;;;;;2.70;1.30;;;18.50;1.00;;;;;;4993490;28;20257;-68
2023/07/19 00:34:18;;;;;;;1.60;1.27;;;18.60;1.00;;;;;;4995162;28;20194;-67
2023/07/19 00:36:45;;;;;;;5.47;1.80;;;18.50;1.00;;;;;;4996278;28;20288;-67
2023/07/19 00:39:12;;;;;;;3.50;1.53;;;18.40;1.00;;;;;;4995158;28;20229;-66
2023/07/19 00:41:39;;;;;;;2.23;1.37;;;18.40;1.00;;;;;;4997580;28;20284;-65
2023/07/19 00:44:06;;;;;;;5.50;1.50;;;18.40;10.90;;;;;;4994140;28;20218;-65
2023/07/19 00:46:33;;;;;;;3.50;1.60;;;18.50;36.00;;;;;;4983364;28;20260;-65
2023/07/19 00:49:01;;;;;;;3.23;1.23;;;18.40;1.00;;;;;;4993771;28;20214;-65
2023/07/19 00:51:28;;;;;;;2.30;1.40;;;18.40;17.50;;;;;;4993421;28;20707;-66
2023/07/19 00:53:56;;;;;;;4.57;1.63;;;18.30;99.90;;;;;;4993462;28;20716;-66
2023/07/19 00:56:23;;;;;;;2.53;1.63;;;18.20;99.90;;;;;;4985632;28;20232;-64
2023/07/19 00:58:52;;;;;;;2.77;1.57;;;18.20;99.90;;;;;;4995217;28;20598;-66
2023/07/19 01:01:22;;;;;;;4.77;1.87;;;18.20;99.90;;;;;;4990584;28;20206;-66
2023/07/19 01:03:49;;;;;;;3.67;1.57;;;18.20;99.90;;;;;;4993547;28;20288;-67
2023/07/19 01:06:18;;;;;;;1.60;1.37;;;18.20;99.90;;;;;;4995818;28;20737;-68
2023/07/19 01:08:46;;;;;;;4.77;1.53;;;18.10;99.90;;;;;;4997735;28;20260;-67
2023/07/19 01:11:13;;;;;;;6.57;2.17;;;18.10;87.50;;;;;;4992034;28;20669;-67
2023/07/19 01:13:53;;;;;;;3.30;1.50;;;18.20;20.90;;;;;;4992476;28;20847;-65
2023/07/19 01:16:20;;;;;;;1.60;1.50;;;18.20;25.70;;;;;;4997302;28;20252;-66
2023/07/19 01:18:48;;;;;;;4.77;1.57;;;18.20;46.50;;;;;;4995243;28;20704;-67
2023/07/19 01:21:14;;;;;;;3.50;1.83;;;18.30;1.00;;;;;;4991423;28;20203;-67
2023/07/19 01:23:50;;;;;;;2.80;1.77;;;18.20;1.00;;;;;;4993461;28;20219;-65
2023/07/19 01:26:18;;;;;;;4.50;1.70;;;18.20;1.00;;;;;;4991406;28;20237;-67
2023/07/19 01:28:45;;;;;;;3.50;1.50;;;18.20;1.00;;;;;;4995533;28;20212;-67
2023/07/19 01:31:17;;;;;;;4.23;2.07;;;18.20;1.00;;;;;;4997815;28;20193;-66
2023/07/19 01:33:44;;;;;;;4.53;1.70;;;18.20;1.00;;;;;;4997253;28;20203;-67
2023/07/19 01:36:11;;;;;;;3.10;1.67;;;18.20;99.90;;;;;;4999361;28;20198;-67
2023/07/19 01:38:38;;;;;;;3.33;1.40;;;18.10;99.90;;;;;;4997899;28;20209;-66
2023/07/19 01:41:05;;;;;;;2.63;1.67;;;18.10;99.90;;;;;;4995878;28;20216;-67
2023/07/19 01:43:32;;;;;;;4.77;1.63;;;18.20;99.90;;;;;;4989500;28;20578;-67
2023/07/19 01:45:59;;;;;;;1.80;1.33;;;18.10;99.90;;;;;;4997917;28;20275;-67
2023/07/19 01:48:26;;;;;;;5.70;1.60;;;18.10;99.90;;;;;;4996331;28;20264;-67
2023/07/19 01:50:53;;;;;;;5.10;1.60;;;18.10;99.90;;;;;;4998708;28;20298;-66
2023/07/19 01:53:19;;;;;;;4.23;1.53;;;18.10;99.90;;;;;;4997298;28;20193;-67
2023/07/19 01:55:47;;;;;;;4.87;1.87;;;18.10;99.90;;;;;;4996169;28;20311;-65
2023/07/19 01:58:13;;;;;;;2.83;1.60;;;18.00;99.90;;;;;;4993934;28;20209;-65
2023/07/19 02:00:40;;;;;;;4.60;1.77;;;18.00;99.90;;;;;;4994616;28;20325;-60
2023/07/19 02:03:07;;;;;;;7.80;3.63;;;18.10;99.90;;;;;;4989581;28;20215;-65
2023/07/19 02:05:38;;;;;;;3.37;2.07;;;18.00;99.90;;;;;;4990836;28;20894;-65
2023/07/19 02:08:05;;;;;;;2.63;1.70;;;18.00;99.90;;;;;;4994436;28;20221;-61
2023/07/19 02:10:32;;;;;;;5.07;3.67;;;17.90;99.90;;;;;;4997857;28;20205;-63
2023/07/19 02:12:59;;;;;;;3.73;1.90;;;17.80;99.90;;;;;;4994887;28;20208;-60
2023/07/19 02:15:26;;;;;;;4.77;2.57;;;17.80;99.90;;;;;;4995474;28;20217;-60
2023/07/19 02:17:53;;;;;;;4.57;2.27;;;17.80;99.90;;;;;;4996931;28;20498;-58
2023/07/19 02:20:20;;;;;;;5.10;2.47;;;17.80;99.90;;;;;;4994374;28;20241;-60
2023/07/19 02:22:47;;;;;;;3.07;2.47;;;17.70;97.00;;;;;;4997053;28;20204;-60
2023/07/19 02:25:14;;;;;;;4.17;2.40;;;17.60;99.90;;;;;;4995635;28;20249;-59
2023/07/19 02:27:40;;;;;;;5.20;2.70;;;17.60;99.90;;;;;;4996798;28;20220;-60
2023/07/19 02:30:08;;;;;;;4.23;2.60;;;17.40;99.90;;;;;;4995388;28;20204;-59
2023/07/19 02:32:35;;;;;;;6.13;3.10;;;17.40;1.00;;;;;;4995572;28;20212;-62
2023/07/19 02:35:02;;;;;;;4.37;2.87;;;17.50;1.00;;;;;;4990306;28;20851;-60
2023/07/19 02:37:29;;;;;;;3.90;2.23;;;17.30;99.90;;;;;;4996204;28;20202;-59
2023/07/19 02:39:56;;;;;;;3.47;2.70;;;17.40;1.00;;;;;;4992194;28;20202;-60
2023/07/19 02:42:23;;;;;;;3.60;2.57;;;17.30;99.90;;;;;;4994237;28;20193;-60
2023/07/19 02:44:50;;;;;;;4.10;2.80;;;17.30;1.00;;;;;;4994941;28;20199;-59
2023/07/19 02:47:17;;;;;;;5.90;3.33;;;17.20;1.00;;;;;;4990893;28;20202;-59
2023/07/19 02:49:44;;;;;;;6.13;2.80;;;17.30;1.00;;;;;;4991156;28;20217;-60
2023/07/19 02:52:11;;;;;;;4.10;2.83;;;17.30;99.90;;;;;;4994635;28;20206;-59
2023/07/19 02:54:38;;;;;;;7.73;2.93;;;17.30;99.90;;;;;;4994840;28;20688;-61
2023/07/19 02:57:05;;;;;;;5.43;3.00;;;17.30;99.90;;;;;;4995839;28;20228;-60
2023/07/19 02:59:32;;;;;;;2.93;2.47;;;17.40;99.90;;;;;;4993587;28;20209;-60
2023/07/19 03:01:58;;;;;;;6.93;3.07;;;17.50;99.90;;;;;;4991780;28;20209;-60
2023/07/19 03:04:25;;;;;;;9.60;3.40;;;17.40;85.00;;;;;;4988873;28;20229;-59
2023/07/19 03:06:52;;;;;;;3.67;3.03;;;17.40;96.80;;;;;;4991458;28;20266;-60
2023/07/19 03:09:19;;;;;;;4.87;2.73;;;17.50;47.30;;;;;;4992163;28;20213;-65
2023/07/19 03:11:46;;;;;;;3.40;2.90;;;17.50;28.60;;;;;;4987968;28;20205;-65
2023/07/19 03:14:13;;;;;;;3.27;2.83;;;17.60;42.70;;;;;;4994308;28;20237;-65
2023/07/19 03:16:41;;;;;;;3.97;3.20;;;17.60;1.00;;;;;;4993561;28;20264;-65
2023/07/19 03:19:09;;;;;;;4.47;2.77;;;17.40;99.90;;;;;;4994525;28;20205;-66
2023/07/19 03:21:39;;;;;;;4.60;3.30;;;17.50;99.90;;;;;;4991567;28;21766;-64
2023/07/19 03:24:06;;;;;;;3.83;3.40;;;17.40;1.00;;;;;;4992666;28;20262;-66
2023/07/19 03:26:33;;;;;;;4.80;3.07;;;17.50;99.90;;;;;;4993599;28;20205;-64
2023/07/19 03:29:00;;;;;;;4.67;3.00;;;17.50;99.90;;;;;;4994567;28;20631;-65
2023/07/19 03:31:27;;;;;;;5.90;3.43;;;17.60;99.90;;;;;;4993343;28;20201;-66
2023/07/19 03:33:54;;;;;;;3.40;3.03;;;17.50;99.90;;;;;;4993166;28;20197;-67
2023/07/19 03:36:21;;;;;;;5.57;3.10;;;17.30;99.90;;;;;;4989381;28;20205;-66
2023/07/19 03:38:48;;;;;;;5.20;3.33;;;17.40;1.00;;;;;;4998156;28;20205;-65
2023/07/19 03:41:15;;;;;;;5.50;3.33;;;17.30;1.00;;;;;;4998481;28;20292;-66
2023/07/19 03:43:41;;;;;;;4.43;2.87;;;17.50;1.00;;;;;;4991856;28;20297;-66
2023/07/19 03:46:08;;;;;;;3.30;2.70;;;17.40;99.90;;;;;;5000197;28;20213;-66
2023/07/19 03:48:37;;;;;;;5.73;3.17;;;17.40;1.00;;;;;;4997712;28;20678;-65
2023/07/19 03:51:04;;;;;;;4.43;3.10;;;17.30;1.00;;;;;;5000322;28;20206;-66
2023/07/19 03:53:31;;;;;;;4.97;4.07;;;17.30;1.00;;;;;;4993551;28;20663;-65
2023/07/19 03:56:00;;;;;;;3.73;3.17;;;17.10;1.00;;;;;;4998565;28;20257;-66
2023/07/19 03:58:27;;;;;;;8.47;3.70;;;17.10;1.00;;;;;;4998048;28;20996;-65
2023/07/19 04:00:55;;;;;;;5.33;3.20;;;17.10;1.00;;;;;;4997606;28;20295;-66
2023/07/19 04:03:23;;;;;;;6.57;3.30;;;17.20;1.00;;;;;;4994821;28;20514;-65
2023/07/19 04:05:51;;;;;;;5.90;3.10;;;17.30;1.00;;;;;;4997349;28;20240;-64
2023/07/19 04:08:18;;;;;;;3.90;2.93;;;17.20;1.00;;;;;;5001618;28;20569;-60
2023/07/19 04:10:45;;;;;;;3.97;3.17;;;17.30;1.00;;;;;;4997341;28;20311;-60
2023/07/19 04:13:13;;;;;;;4.13;2.87;;;17.30;1.00;;;;;;4993127;28;20201;-60
2023/07/19 04:15:40;;;;;;;3.97;3.07;;;17.30;1.00;;;;;;4989907;28;20223;-67
2023/07/19 04:18:07;;;;;;;5.87;3.13;;;17.20;1.00;;;;;;4992145;28;20221;-60
2023/07/19 04:20:36;;;;;;;5.30;2.93;;;17.30;1.00;;;;;;4996988;28;20209;-60
2023/07/19 04:23:03;;;;;;;4.37;3.50;;;17.30;1.00;;;;;;4998568;28;20275;-61
2023/07/19 04:25:31;;;;;;;5.07;3.53;;;17.20;1.00;;;;;;4992691;28;20670;-60
2023/07/19 04:27:58;;;;;;;6.03;3.20;;;17.30;1.00;;;;;;4998171;28;20208;-65
2023/07/19 04:30:25;;;;;;;5.63;4.43;;;17.10;1.00;;;;;;4996770;28;20203;-66
2023/07/19 04:32:54;;;;;;;7.03;3.37;;;17.10;1.00;;;;;;4995482;28;20205;-60
2023/07/19 04:35:22;;;;;;;5.30;3.37;;;17.10;1.00;;;;;;4995327;28;20255;-60
2023/07/19 04:37:50;;;;;;;7.60;4.13;;;17.20;1.00;;;;;;4996002;28;20206;-66
2023/07/19 04:40:17;;;;;;;7.10;3.80;;;17.30;1.00;;;;;;4995960;28;20211;-66
2023/07/19 04:42:44;;;;;;;5.03;3.20;;;17.30;1.00;;;;;;4995178;28;20209;-66
2023/07/19 04:45:13;;;;;;;6.47;3.63;;;17.30;99.90;;;;;;4998267;28;20676;-64
2023/07/19 04:47:40;;;;;;;6.90;3.73;;;17.30;1.00;;;;;;4996109;28;20731;-66
2023/07/19 04:50:08;;;;;;;5.87;3.10;;;17.40;99.90;;;;;;4980126;28;20707;-65
2023/07/19 04:52:36;;;;;;;6.53;3.30;;;17.50;99.90;;;;;;4998434;28;21155;-65
2023/07/19 04:55:05;;;;;;;5.07;3.67;;;17.60;99.90;;;;;;4994218;28;20675;-66
2023/07/19 04:57:32;;;;;;;4.83;4.10;;;17.60;99.90;;;;;;4993641;28;20208;-66
2023/07/19 04:59:58;;;;;;;5.17;4.50;;;17.60;99.90;;;;;;4998161;28;20205;-60
2023/07/19 05:02:25;;;;;;;6.20;3.93;;;17.70;99.90;;;;;;4996022;28;20220;-60
2023/07/19 05:04:52;;;;;;;8.00;4.17;;;17.60;99.90;;;;;;4995866;28;20267;-60
2023/07/19 05:07:20;;;;;;;3.73;3.17;;;17.70;1.00;;;;;;4980774;28;20200;-60
2023/07/19 05:09:47;;;;;;;6.73;3.70;;;17.60;99.90;;;;;;4998065;28;20223;-61
2023/07/19 05:12:14;;;;;;;5.47;3.90;;;17.70;99.90;;;;;;4993277;28;20260;-61
2023/07/19 05:14:41;;;;;;;5.60;3.90;;;17.80;99.90;;;;;;4994451;28;20204;-62
2023/07/19 05:17:08;;;;;;;5.37;4.00;;;17.80;21.70;;;;;;4995320;28;20400;-62
2023/07/19 05:19:35;;;;;;;9.23;3.80;;;17.70;80.40;;;;;;4990947;28;20233;-63
2023/07/19 05:22:02;;;;;;;6.57;4.13;;;17.90;75.90;;;;;;4995850;28;20208;-63
2023/07/19 05:24:29;;;;;;;5.57;4.07;;;17.80;99.90;;;;;;4996818;28;21118;-61
2023/07/19 05:26:56;;;;;;;5.33;3.20;;;17.90;99.90;;;;;;4994104;28;20547;-62
2023/07/19 05:29:23;;;;;;;4.70;3.53;;;18.10;99.90;;;;;;4996638;28;20245;-62
2023/07/19 05:31:50;;;;;;;8.00;3.83;;;18.00;68.20;;;;;;4992269;28;20201;-63
2023/07/19 05:34:17;;;;;;;6.37;4.10;;;17.90;99.90;;;;;;4996564;28;20217;-62
2023/07/19 05:36:44;;;;;;;5.67;3.60;;;18.00;99.90;;;;;;4996935;28;20202;-61
2023/07/19 05:39:11;;;;;;;6.80;4.30;;;18.10;90.80;;;;;;4995120;28;20299;-60
2023/07/19 05:41:38;;;;;;;5.23;3.60;;;17.90;99.90;;;;;;4993637;28;20205;-60
2023/07/19 05:44:05;;;;;;;5.37;3.90;;;18.10;99.90;;;;;;4995157;28;20201;-59
2023/07/19 05:46:38;;;;;;;6.80;3.53;;;18.20;99.90;;;;;;4995687;28;20635;-61
2023/07/19 05:49:05;;;;;;;6.27;3.67;;;18.40;99.90;;;;;;4994567;28;20678;-59
2023/07/19 05:51:32;;;;;;;7.40;3.80;;;18.30;1.00;;;;;;4997037;28;20237;-62
2023/07/19 05:53:59;;;;;;;6.80;4.40;;;18.40;72.40;;;;;;4991644;28;20553;-61
2023/07/19 05:56:26;;;;;;;4.80;3.50;;;18.30;1.00;;;;;;4993463;28;20193;-60
2023/07/19 05:58:54;;;;;;;6.63;3.80;;;18.30;1.00;;;;;;4995951;28;20279;-60
2023/07/19 06:01:21;;;;;;;8.20;4.23;;;18.50;1.00;;;;;;4984849;28;20209;-63
2023/07/19 06:03:53;;;;;;;7.27;4.97;;;18.40;1.00;;;;;;4993019;28;20308;-67
2023/07/19 06:06:20;;;;;;;5.63;4.30;;;18.20;1.00;;;;;;4988871;28;20241;-66
2023/07/19 06:08:47;;;;;;;6.13;4.50;;;18.30;1.00;;;;;;4995044;28;20279;-60
2023/07/19 06:11:14;;;;;;;8.33;4.30;;;18.40;1.00;;;;;;4993333;28;20712;-67
2023/07/19 06:13:41;;;;;;;5.77;4.00;;;18.50;1.00;;;;;;4981389;28;20568;-67
2023/07/19 06:16:08;;;;;;;5.87;3.77;;;18.60;1.00;;;;;;4988128;28;20198;-64
2023/07/19 06:18:35;;;;;;;8.63;3.90;;;18.70;1.00;;;;;;4986990;28;20419;-65
2023/07/19 06:21:01;;;;;;;8.97;4.70;;;18.80;1.00;;;;;;4988105;28;20201;-64
2023/07/19 06:23:28;;;;;;;6.53;3.67;;;18.80;1.00;;;;;;4985608;28;20751;-65
2023/07/19 06:25:55;;;;;;;4.03;3.40;;;18.90;1.00;;;;;;4988636;28;20650;-66
2023/07/19 06:28:22;;;;;;;7.10;4.07;;;18.80;1.00;;;;;;4628815;28;10000061;-68
2023/07/19 06:30:49;;;;;;;7.40;4.47;;;19.10;1.00;;;;;;4977223;28;20791;-65
2023/07/19 06:33:16;;;;;;;7.87;3.63;;;19.30;1.00;;;;;;4977099;28;20416;-65
2023/07/19 06:35:43;;;;;;;4.60;3.43;;;19.40;1.00;;;;;;4977076;28;20561;-64
2023/07/19 06:38:10;;;;;;;5.80;3.50;;;19.20;1.00;;;;;;4974954;28;20225;-67
2023/07/19 06:40:37;;;;;;;5.77;3.97;;;19.50;1.00;;;;;;4988255;28;20264;-65
2023/07/19 06:43:06;;;;;;;6.60;3.47;;;19.50;99.90;;;;;;4985086;28;20590;-64
2023/07/19 06:45:32;;;;;;;5.47;3.00;;;19.40;99.90;;;;;;4986903;28;20213;-66
2023/07/19 06:47:59;;;;;;;6.60;3.13;;;19.60;99.90;;;;;;4983138;28;20209;-67
2023/07/19 06:50:26;;;;;;;7.07;3.30;;;19.80;99.90;;;;;;4979578;28;20265;-67
2023/07/19 06:52:53;;;;;;;9.00;3.93;;;20.10;99.90;;;;;;4982813;28;20688;-64
2023/07/19 06:55:20;;;;;;;9.07;3.77;;;20.10;99.90;;;;;;4982706;28;20343;-63
2023/07/19 06:57:47;;;;;;;5.70;3.10;;;20.20;99.90;;;;;;4978350;28;20204;-60
2023/07/19 07:00:14;;;;;;;7.70;3.43;;;19.90;99.90;;;;;;4979600;28;20562;-64
2023/07/19 07:02:41;;;;;;;3.83;3.10;;;19.80;99.90;;;;;;4984792;28;20573;-63
2023/07/19 07:05:10;;;;;;;6.50;2.90;;;19.90;99.90;;;;;;4987783;28;20424;-61
2023/07/19 07:07:39;;;;;;;6.70;3.30;;;20.20;99.90;;;;;;4986161;28;20899;-61
2023/07/19 07:10:08;;;;;;;6.33;3.03;;;20.20;99.90;;;;;;5001214;28;20229;-62
2023/07/19 07:12:36;;;;;;;6.23;2.97;;;20.30;99.90;;;;;;4988692;28;20212;-61
2023/07/19 07:15:04;;;;;;;5.77;2.67;;;20.10;99.90;;;;;;4985258;28;20198;-63
2023/07/19 07:17:31;;;;;;;5.93;3.00;;;20.00;99.90;;;;;;4985118;28;20198;-62
2023/07/19 07:19:58;;;;;;;5.07;2.70;;;20.10;99.90;;;;;;4985151;28;20198;-66
2023/07/19 07:22:26;;;;;;;4.50;2.90;;;20.10;99.90;;;;;;4989999;28;20626;-66
2023/07/19 07:24:53;;;;;;;7.13;2.83;;;20.00;99.90;;;;;;4982211;28;20543;-64
2023/07/19 07:27:20;;;;;;;5.97;2.77;;;20.00;99.90;;;;;;4986764;28;20205;-64
2023/07/19 07:29:46;;;;;;;5.70;2.40;;;20.00;99.90;;;;;;4982208;28;20214;-63
2023/07/19 07:32:13;;;;;;;4.57;2.67;;;20.20;99.90;;;;;;4988152;28;20657;-63
2023/07/19 07:34:40;;;;;;;6.10;2.83;;;20.40;99.90;;;;;;4984187;28;20696;-64
2023/07/19 07:37:07;;;;;;;5.97;2.90;;;20.60;99.90;;;;;;4980072;28;20306;-66
2023/07/19 07:39:35;;;;;;;4.83;1.97;;;20.80;91.80;;;;;;4971723;28;20224;-65
2023/07/19 07:42:02;;;;;;;5.60;2.67;;;21.30;43.80;;;;;;4984597;28;20205;-65
2023/07/19 07:44:29;;;;;;;9.13;2.63;;;21.50;1.00;;;;;;4978213;28;20216;-63
2023/07/19 07:46:56;;;;;;;4.17;2.10;;;21.50;1.00;;;;;;4981140;28;20206;-64
2023/07/19 07:49:23;;;;;;;5.20;2.50;;;21.60;1.00;;;;;;4979632;28;20214;-64
2023/07/19 07:51:50;;;;;;;5.77;2.50;;;21.90;1.00;;;;;;4985060;28;20221;-65
2023/07/19 07:54:17;;;;;;;5.73;2.50;;;22.00;1.00;;;;;;4979202;28;20206;-63
2023/07/19 07:56:44;;;;;;;5.73;2.40;;;21.60;1.00;;;;;;4977899;28;20344;-64
2023/07/19 07:59:11;;;;;;;5.70;1.80;;;21.80;1.00;;;;;;4976206;28;20206;-63
2023/07/19 08:01:38;;;;;;;6.53;2.00;;;22.00;1.00;;;;;;4981816;28;20200;-63
2023/07/19 08:04:06;;;;;;;5.07;1.83;;;22.00;1.00;;;;;;4972003;28;20255;-63
2023/07/19 08:06:36;;;;;;;6.33;2.07;;;22.20;1.00;;;;;;4971509;28;20318;-65
2023/07/19 08:09:03;;;;;;;4.03;2.40;;;22.50;1.00;;;;;;4983535;28;20248;-65
2023/07/19 08:11:32;;;;;;;7.17;2.70;;;22.00;1.00;;;;;;4976291;28;20202;-66
2023/07/19 08:13:59;;;;;;;3.37;2.07;;;21.90;1.00;;;;;;4981953;28;20222;-64
2023/07/19 08:16:27;;;;;;;5.00;2.10;;;21.90;1.00;;;;;;4987168;28;20197;-65
2023/07/19 08:18:55;;;;;;;3.43;2.10;;;22.00;1.00;;;;;;4980234;28;20284;-64
2023/07/19 08:21:23;;;;;;;3.43;1.70;;;22.30;1.00;;;;;;4986912;28;20206;-64
2023/07/19 08:24:02;;;;;;;3.30;2.27;;;22.10;1.00;;;;;;4982485;28;20205;-65
2023/07/19 08:26:29;;;;;;;5.73;1.77;;;21.90;1.00;;;;;;4991480;28;20291;-63
2023/07/19 08:28:56;;;;;;;5.37;2.17;;;22.00;1.00;;;;;;4981328;28;20731;-64
2023/07/19 08:31:23;;;;;;;4.03;1.83;;;22.00;1.00;;;;;;4981224;28;20218;-64
2023/07/19 08:33:52;;;;;;;7.80;1.97;;;21.70;1.00;;;;;;4972720;28;20219;-63
2023/07/19 08:36:19;;;;;;;3.93;1.60;;;22.00;1.00;;;;;;4996059;28;20235;-66
2023/07/19 08:38:47;;;;;;;3.60;1.47;;;22.60;1.00;;;;;;4987580;28;20205;-65
2023/07/19 08:41:21;;;;;;;5.17;1.67;;;22.70;1.00;;;;;;4982745;28;20705;-65
2023/07/19 08:43:48;;;;;;;5.70;1.60;;;22.60;1.00;;;;;;4989198;28;20296;-64
2023/07/19 08:46:16;;;;;;;4.50;1.93;;;22.30;1.00;;;;;;4981204;28;20206;-63
2023/07/19 08:48:47;;;;;;;4.77;1.83;;;22.00;1.00;;;;;;4978535;28;20228;-64
2023/07/19 08:51:16;;;;;;;5.97;2.10;;;22.20;1.00;;;;;;4996300;28;20542;-64
2023/07/19 08:53:43;;;;;;;6.03;1.90;;;22.20;1.00;;;;;;4988173;28;20229;-64
2023/07/19 08:56:14;;;;;;;3.60;2.03;;;22.20;1.00;;;;;;4987184;28;20203;-65
2023/07/19 08:58:43;;;;;;;4.20;1.70;;;22.00;1.00;;;;;;4991579;28;20592;-67
2023/07/19 09:01:14;;;;;;;2.43;1.20;;;22.00;1.00;;;;;;4990153;28;20222;-63
2023/07/19 09:03:41;;;;;;;3.47;1.70;;;22.00;1.00;;;;;;4975464;28;20236;-63
2023/07/19 09:06:08;;;;;;;2.80;1.90;;;22.00;1.00;;;;;;4977802;28;20240;-64
2023/07/19 09:08:37;;;;;;;6.00;1.77;;;22.10;1.00;;;;;;4989427;28;20654;-64
2023/07/19 09:11:04;;;;;;;5.30;2.17;;;22.20;1.00;;;;;;4978097;28;21019;-65
2023/07/19 09:13:32;;;;;;;5.07;2.10;;;22.30;1.00;;;;;;4989360;28;20249;-64
2023/07/19 09:16:04;;;;;;;3.27;1.70;;;22.40;1.00;;;;;;4985438;28;20483;-63
2023/07/19 09:18:37;;;;;;;3.97;1.77;;;22.40;1.00;;;;;;4990918;28;20545;-67
2023/07/19 09:21:06;;;;;;;2.73;1.67;;;22.70;1.00;;;;;;4984709;28;20221;-65
2023/07/19 09:23:37;;;;;;;3.30;1.37;;;23.20;1.00;;;;;;4971027;28;20210;-64
2023/07/19 09:26:05;;;;;;;4.20;1.23;;;23.50;1.00;;;;;;4992236;28;23457;-63
2023/07/19 09:28:35;;;;;;;3.90;1.33;;;23.50;1.00;;;;;;4974531;28;20750;-64
2023/07/19 09:31:04;;;;;;;3.47;1.23;;;23.70;1.00;;;;;;4977507;28;20291;-63
2023/07/19 09:33:55;;;;;;;3.47;1.47;;;23.30;1.00;;;;;;4990218;28;20194;-64
2023/07/19 09:36:22;;;;;;;3.80;1.30;;;23.40;1.00;;;;;;4978055;28;20345;-66
2023/07/19 09:38:50;;;;;;;6.20;1.60;;;23.50;1.00;;;;;;4987170;28;20205;-65
2023/07/19 09:41:18;;;;;;;5.10;1.23;;;23.30;1.00;;;;;;4992485;28;20745;-67
2023/07/19 09:43:47;;;;;;;1.87;1.17;;;23.60;1.00;;;;;;4983901;28;20229;-67
2023/07/19 09:46:14;;;;;;;4.80;1.40;;;23.20;1.00;;;;;;4984166;28;20205;-66
2023/07/19 09:48:41;;;;;;;4.30;1.30;;;22.70;1.00;;;;;;4984401;28;20256;-64
2023/07/19 09:51:10;;;;;;;2.97;1.27;;;22.90;1.00;;;;;;4994418;28;20224;-66
2023/07/19 09:53:38;;;;;;;2.60;1.50;;;23.20;1.00;;;;;;4977864;28;20225;-66
2023/07/19 09:56:08;;;;;;;4.30;1.67;;;23.20;1.00;;;;;;4986087;28;20570;-66
2023/07/19 09:58:35;;;;;;;5.43;1.77;;;23.30;1.00;;;;;;4985156;28;20209;-66
2023/07/19 10:01:02;;;;;;;3.37;1.40;;;23.30;1.00;;;;;;4989412;28;20292;-66
2023/07/19 10:03:29;;;;;;;4.10;1.50;;;23.40;1.00;;;;;;4990324;28;20322;-66
2023/07/19 10:05:58;;;;;;;2.63;1.60;;;23.20;1.00;;;;;;4990290;28;20206;-67
2023/07/19 10:08:25;;;;;;;4.87;2.03;;;23.00;1.00;;;;;;4991434;28;20233;-65
2023/07/19 10:10:57;;;;;;;3.43;1.63;;;23.10;1.00;;;;;;4978436;28;20752;-66
2023/07/19 10:13:31;;;;;;;4.17;2.20;;;23.30;1.00;;;;;;4991485;28;20200;-67
2023/07/19 10:15:58;;;;;;;3.93;1.80;;;23.10;1.00;;;;;;4985237;28;20228;-67
2023/07/19 10:18:25;;;;;;;2.83;1.40;;;23.40;1.00;;;;;;4989386;28;21736;-65
2023/07/19 10:21:03;;;;;;;7.23;2.37;;;23.50;1.00;;;;;;4992517;28;20596;-67
2023/07/19 10:23:30;;;;;;;6.77;1.90;;;23.50;1.00;;;;;;4991101;28;20202;-66
2023/07/19 10:26:06;;;;;;;3.73;1.53;;;23.30;1.00;;;;;;4979713;28;20212;-68
2023/07/19 10:28:33;;;;;;;5.17;1.70;;;22.90;1.00;;;;;;4977284;28;20214;-67
2023/07/19 10:31:02;;;;;;;4.73;1.93;;;23.10;1.00;;;;;;4984727;28;20223;-67
2023/07/19 10:33:54;;;;;;;2.33;1.57;;;22.80;1.00;;;;;;4986501;28;20232;-67
2023/07/19 10:36:21;;;;;;;5.33;1.50;;;22.70;1.00;;;;;;4991684;28;20234;-67
2023/07/19 10:38:48;;;;;;;2.30;1.40;;;22.90;1.00;;;;;;4985593;28;20240;-66
2023/07/19 10:41:17;;;;;;;2.43;1.47;;;23.10;1.00;;;;;;4984431;28;20201;-65
2023/07/19 10:43:44;;;;;;;2.77;1.30;;;22.90;1.00;;;;;;4982585;28;20257;-66
2023/07/19 10:46:18;;;;;;;5.13;1.40;;;22.90;1.00;;;;;;4978226;28;20272;-65
2023/07/19 10:48:48;;;;;;;1.90;1.37;;;22.90;1.00;;;;;;4989862;28;20202;-62
2023/07/19 10:51:15;;;;;;;2.47;1.23;;;22.90;1.00;;;;;;4981494;28;20299;-63
2023/07/19 10:53:47;;;;;;;6.40;1.67;;;22.80;1.00;;;;;;4987988;28;20580;-60
2023/07/19 10:56:16;;;;;;;4.00;1.40;;;22.50;1.00;;;;;;4987487;28;20206;-59
2023/07/19 10:58:43;;;;;;;3.97;1.60;;;22.70;1.00;;;;;;4991276;28;20198;-59
2023/07/19 11:01:11;;;;;;;3.20;1.50;;;22.90;1.00;;;;;;4978927;28;20194;-60
2023/07/19 11:03:43;;;;;;;5.40;1.60;;;23.30;1.00;;;;;;4981764;28;20234;-60
2023/07/19 11:06:11;;;;;;;7.83;1.67;;;23.40;1.00;;;;;;4980566;28;20371;-61
2023/07/19 11:08:38;;;;;;;4.53;1.70;;;23.10;1.00;;;;;;4983961;28;20245;-64
2023/07/19 11:11:06;;;;;;;4.90;1.50;;;23.00;1.00;;;;;;4986698;28;20332;-62
2023/07/19 11:13:34;;;;;;;1.70;1.17;;;23.10;1.00;;;;;;4980441;28;20292;-65
2023/07/19 11:16:01;;;;;;;4.93;1.67;;;23.20;1.00;;;;;;4987178;28;20236;-63
2023/07/19 11:18:30;;;;;;;3.37;1.17;;;23.40;1.00;;;;;;4977402;28;20213;-63
2023/07/19 11:20:58;;;;;;;5.10;1.40;;;23.40;1.00;;;;;;4984915;28;20201;-64
2023/07/19 11:23:26;;;;;;;5.13;1.47;;;23.40;1.00;;;;;;4984979;28;20201;-62
2023/07/19 11:26:07;;;;;;;3.90;1.33;;;23.40;1.00;;;;;;4982873;28;20583;-64
2023/07/19 11:29:00;;;;;;;2.33;1.17;;;23.30;1.00;;;;;;4970001;28;20324;-64
2023/07/19 11:31:31;;;;;;;4.57;1.30;;;23.30;1.00;;;;;;4981945;28;20213;-65
2023/07/19 11:34:07;;;;;;;1.77;1.10;;;23.20;1.00;;;;;;4983173;28;20225;-65
2023/07/19 11:36:38;;;;;;;3.60;1.10;;;23.40;1.00;;;;;;4988733;28;20212;-65
2023/07/19 11:39:12;;;;;;;5.03;1.10;;;23.60;1.00;;;;;;4979337;28;20206;-67
2023/07/19 11:41:42;;;;;;;3.07;1.17;;;24.10;1.00;;;;;;4967767;28;20732;-64
2023/07/19 11:44:16;;;;;;;2.87;1.00;;;24.10;1.00;;;;;;4967527;28;20829;-67
2023/07/19 11:46:43;;;;;;;4.20;0.80;;;24.30;1.00;;;;;;4970404;28;20205;-68
2023/07/19 11:49:10;;;;;;;2.30;0.87;;;24.40;1.00;;;;;;4970303;28;21126;-65
2023/07/19 11:51:38;;;;;;;2.20;0.90;;;24.10;1.00;;;;;;4965016;28;20730;-68
2023/07/19 11:54:05;;;;;;;3.40;1.10;;;24.20;1.00;;;;;;4974556;28;20206;-68
2023/07/19 11:56:33;;;;;;;4.50;0.80;;;24.70;1.00;;;;;;4979907;28;20205;-64
2023/07/19 11:59:00;;;;;;;3.40;0.93;;;25.00;1.00;;;;;;4969083;28;22475;-62
2023/07/19 12:01:27;;;;;;;2.33;1.10;;;24.90;1.00;;;;;;4971869;28;20202;-60
2023/07/19 12:03:59;;;;;;;2.93;1.77;;;24.40;1.00;;;;;;4980666;28;20325;-60
2023/07/19 12:06:27;;;;;;;3.63;1.30;;;24.20;1.00;;;;;;4967625;28;20210;-63
2023/07/19 12:08:54;;;;;;;3.73;1.20;;;24.00;1.00;;;;;;4980855;28;20670;-61
2023/07/19 12:11:21;;;;;;;2.70;1.00;;;24.00;1.00;;;;;;4963072;28;20897;-60
2023/07/19 12:13:49;;;;;;;7.10;1.33;;;24.50;1.00;;;;;;4968175;28;20213;-61
2023/07/19 12:16:18;;;;;;;2.47;0.93;;;24.60;1.00;;;;;;4970720;28;20566;-60
2023/07/19 12:18:46;;;;;;;2.60;1.23;;;24.50;1.00;;;;;;4975927;28;20290;-61
2023/07/19 12:21:13;;;;;;;2.63;0.80;;;24.70;1.00;;;;;;4985487;28;20206;-61
2023/07/19 12:23:40;;;;;;;4.67;1.20;;;24.50;1.00;;;;;;4982007;28;20207;-62
2023/07/19 12:26:08;;;;;;;5.30;1.30;;;24.60;1.00;;;;;;4980301;28;20198;-59
2023/07/19 12:28:36;;;;;;;1.17;1.07;;;24.20;1.00;;;;;;4964635;28;24218;-60
2023/07/19 12:31:03;;;;;;;3.17;1.40;;;23.90;1.00;;;;;;4985629;28;20232;-59
2023/07/19 12:33:30;;;;;;;4.73;2.40;;;24.10;1.00;;;;;;4963324;28;20201;-61
2023/07/19 12:35:57;;;;;;;3.70;1.80;;;24.00;1.00;;;;;;4980958;28;20201;-60
2023/07/19 12:38:24;;;;;;;5.23;1.77;;;23.60;1.00;;;;;;4987572;28;20621;-59
2023/07/19 12:40:51;;;;;;;6.20;1.60;;;23.40;1.00;;;;;;4989057;28;20317;-59
2023/07/19 12:43:18;;;;;;;3.80;1.70;;;23.50;1.00;;;;;;4974770;28;20201;-62
2023/07/19 12:45:44;;;;;;;4.43;1.63;;;23.50;1.00;;;;;;4988730;28;20206;-60
2023/07/19 12:48:11;;;;;;;2.37;1.30;;;23.40;1.00;;;;;;4982146;28;20205;-61
2023/07/19 12:50:38;;;;;;;4.07;1.80;;;23.40;1.00;;;;;;4988265;28;20229;-59
2023/07/19 12:53:05;;;;;;;6.63;1.47;;;23.40;1.00;;;;;;4980831;28;20205;-59
2023/07/19 12:55:32;;;;;;;6.73;1.43;;;23.40;1.00;;;;;;4988317;28;20657;-62